createdAt,value
2023-02-25T00:00:38.262Z,96588.34
2023-02-25T00:03:06.388Z,96594.34
2023-02-25T00:05:39.779Z,96596.47
2023-02-25T00:08:07.898Z,96601.34
2023-02-25T00:10:35.914Z,96594.38
2023-02-25T00:13:17.363Z,96590.75
2023-02-25T00:15:45.873Z,96598.41
2023-02-25T00:18:13.854Z,96610.44
2023-02-25T00:20:43.943Z,96590.34
2023-02-25T00:23:11.813Z,96595.94
2023-02-25T00:25:39.750Z,96597.34
2023-02-25T00:28:07.989Z,96609.38
2023-02-25T00:30:36.195Z,96602.81
2023-02-25T00:33:05.551Z,96594.03
2023-02-25T00:35:34.290Z,96594.91
2023-02-25T00:38:15.277Z,96594.28
2023-02-25T00:40:44.450Z,96580.84
2023-02-25T00:43:12.457Z,96571.72
2023-02-25T00:45:40.998Z,96580.53
2023-02-25T00:48:09.039Z,96571.97
2023-02-25T00:50:39.625Z,96569.97
2023-02-25T00:53:09.078Z,96567.84
2023-02-25T00:55:37.374Z,96575.88
2023-02-25T00:58:05.882Z,96570.78
2023-02-25T01:00:43.402Z,96567.28
2023-02-25T01:03:19.492Z,96570.03
2023-02-25T01:05:50.930Z,96578.81
2023-02-25T01:08:20.755Z,96570.56
2023-02-25T01:10:49.092Z,96564.44
2023-02-25T01:13:17.151Z,96582.19
2023-02-25T01:15:45.516Z,96577.47
2023-02-25T01:18:13.528Z,96567.94
2023-02-25T01:20:41.608Z,96569.59
2023-02-25T01:23:09.634Z,96576.28
2023-02-25T01:25:42.159Z,96569.31
2023-02-25T01:28:10.139Z,96564.94
2023-02-25T01:30:38.581Z,96571.84
2023-02-25T01:33:06.721Z,96580.00
2023-02-25T01:35:36.630Z,96578.81
2023-02-25T01:38:04.545Z,96577.41
2023-02-25T01:40:32.867Z,96567.38
2023-02-25T01:43:02.261Z,96570.03
2023-02-25T01:45:31.854Z,96574.38
2023-02-25T01:48:07.065Z,96565.59
2023-02-25T01:50:41.383Z,96568.13
2023-02-25T01:53:09.889Z,96575.84
2023-02-25T01:55:38.151Z,96581.69
2023-02-25T01:58:07.529Z,96585.72
2023-02-25T02:00:35.581Z,96582.00
2023-02-25T02:03:04.036Z,96583.56
2023-02-25T02:05:39.559Z,96585.38
2023-02-25T02:08:07.530Z,96586.53
2023-02-25T02:10:35.589Z,96589.94
2023-02-25T02:13:03.655Z,96594.16
2023-02-25T02:15:33.360Z,96592.47
2023-02-25T02:18:02.084Z,96590.56
2023-02-25T02:20:31.788Z,96586.66
2023-02-25T02:23:10.306Z,96582.41
2023-02-25T02:26:15.915Z,96579.88
2023-02-25T02:29:19.760Z,96582.00
2023-02-25T02:32:08.488Z,96587.38
2023-02-25T02:34:41.057Z,96582.94
2023-02-25T02:37:16.454Z,96589.72
2023-02-25T02:39:51.109Z,96591.94
2023-02-25T02:42:21.420Z,96581.47
2023-02-25T02:44:52.526Z,96582.00
2023-02-25T02:47:24.091Z,96585.59
2023-02-25T02:49:54.327Z,96582.41
2023-02-25T02:52:24.242Z,96578.50
2023-02-25T02:54:54.919Z,96574.72
2023-02-25T02:57:22.999Z,96566.97
2023-02-25T02:59:53.005Z,96578.94
2023-02-25T03:02:23.951Z,96584.75
2023-02-25T03:04:54.851Z,96577.78
2023-02-25T03:07:23.027Z,96578.09
2023-02-25T03:09:52.012Z,96585.59
2023-02-25T03:12:19.946Z,96582.72
2023-02-25T03:14:48.736Z,96579.16
2023-02-25T03:17:18.043Z,96583.69
2023-02-25T03:19:48.926Z,96595.63
2023-02-25T03:22:18.222Z,96592.97
2023-02-25T03:24:49.588Z,96602.19
2023-02-25T03:27:26.009Z,96606.84
2023-02-25T03:29:54.018Z,96609.38
2023-02-25T03:32:22.060Z,96608.94
2023-02-25T03:34:51.440Z,96606.94
2023-02-25T03:37:21.943Z,96609.88
2023-02-25T03:39:52.788Z,96604.94
2023-02-25T03:42:21.870Z,96604.22
2023-02-25T03:44:51.671Z,96608.34
2023-02-25T03:47:19.692Z,96615.19
2023-02-25T03:49:49.525Z,96614.34
2023-02-25T03:52:21.028Z,96618.69
2023-02-25T03:54:51.451Z,96618.16
2023-02-25T03:57:19.505Z,96616.03
2023-02-25T03:59:47.585Z,96613.06
2023-02-25T04:02:15.509Z,96623.63
2023-02-25T04:04:43.720Z,96621.00
2023-02-25T04:07:11.779Z,96638.13
2023-02-25T04:09:41.415Z,96635.25
2023-02-25T04:12:09.740Z,96637.13
2023-02-25T04:14:37.659Z,96634.63
2023-02-25T04:17:06.319Z,96638.75
2023-02-25T04:19:34.356Z,96636.22
2023-02-25T04:22:02.468Z,96644.97
2023-02-25T04:24:30.695Z,96652.22
2023-02-25T04:27:01.710Z,96652.78
2023-02-25T04:29:30.360Z,96656.16
2023-02-25T04:31:58.771Z,96662.44
2023-02-25T04:34:26.876Z,96660.44
2023-02-25T04:36:55.101Z,96666.25
2023-02-25T04:39:23.015Z,96659.97
2023-02-25T04:41:50.989Z,96663.59
2023-02-25T04:44:20.384Z,96659.81
2023-02-25T04:46:51.842Z,96663.59
2023-02-25T04:49:20.427Z,96649.75
2023-02-25T04:51:49.454Z,96654.63
2023-02-25T04:54:18.490Z,96648.28
2023-02-25T04:56:46.485Z,96650.09
2023-02-25T04:59:14.498Z,96650.28
2023-02-25T05:01:44.154Z,96658.41
2023-02-25T05:04:12.139Z,96654.59
2023-02-25T05:06:40.378Z,96657.13
2023-02-25T05:09:10.283Z,96654.50
2023-02-25T05:11:38.400Z,96644.06
2023-02-25T05:14:06.840Z,96648.06
2023-02-25T05:16:34.881Z,96651.22
2023-02-25T05:19:04.348Z,96639.81
2023-02-25T05:21:32.720Z,96639.28
2023-02-25T05:24:00.662Z,96641.94
2023-02-25T05:26:28.630Z,96642.78
2023-02-25T05:28:57.531Z,96644.16
2023-02-25T05:31:26.153Z,96645.00
2023-02-25T05:33:54.313Z,96643.94
2023-02-25T05:36:27.494Z,96647.75
2023-02-25T05:38:56.176Z,96641.41
2023-02-25T05:41:24.176Z,96642.69
2023-02-25T05:43:52.118Z,96649.91
2023-02-25T05:46:20.221Z,96642.06
2023-02-25T05:48:48.980Z,96634.53
2023-02-25T05:51:18.013Z,96639.84
2023-02-25T05:53:48.103Z,96636.84
2023-02-25T05:56:17.061Z,96625.34
2023-02-25T05:58:46.749Z,96630.09
2023-02-25T06:01:16.343Z,96632.53
2023-02-25T06:03:44.752Z,96641.41
2023-02-25T06:06:14.768Z,96638.22
2023-02-25T06:08:44.335Z,96641.94
2023-02-25T06:11:15.382Z,96637.72
2023-02-25T06:13:43.289Z,96640.91
2023-02-25T06:16:11.523Z,96636.44
2023-02-25T06:18:39.755Z,96636.84
2023-02-25T06:21:08.554Z,96639.63
2023-02-25T06:23:36.717Z,96651.13
2023-02-25T06:26:05.029Z,96640.59
2023-02-25T06:28:34.636Z,96651.34
2023-02-25T06:31:03.123Z,96651.13
2023-02-25T06:33:31.947Z,96650.19
2023-02-25T06:36:00.046Z,96656.44
2023-02-25T06:38:28.152Z,96664.03
2023-02-25T06:40:56.392Z,96659.81
2023-02-25T06:43:24.279Z,96659.72
2023-02-25T06:45:53.615Z,96664.16
2023-02-25T06:48:21.857Z,96664.78
2023-02-25T06:50:50.300Z,96663.75
2023-02-25T06:53:18.633Z,96655.91
2023-02-25T06:55:46.690Z,96670.69
2023-02-25T06:58:15.673Z,96670.91
2023-02-25T07:00:43.641Z,96675.16
2023-02-25T07:03:13.866Z,96676.63
2023-02-25T07:05:41.797Z,96686.78
2023-02-25T07:08:09.794Z,96688.47
2023-02-25T07:10:40.551Z,96689.19
2023-02-25T07:13:08.514Z,96699.69
2023-02-25T07:15:36.703Z,96692.88
2023-02-25T07:18:05.133Z,96688.88
2023-02-25T07:20:34.467Z,96695.47
2023-02-25T07:23:04.103Z,96694.81
2023-02-25T07:25:32.337Z,96691.00
2023-02-25T07:28:00.291Z,96695.34
2023-02-25T07:30:28.232Z,96689.00
2023-02-25T07:32:56.986Z,96682.56
2023-02-25T07:35:25.024Z,96688.06
2023-02-25T07:37:54.447Z,96688.91
2023-02-25T07:40:22.616Z,96694.19
2023-02-25T07:42:50.953Z,96697.16
2023-02-25T07:45:19.210Z,96689.94
2023-02-25T07:47:47.155Z,96700.31
2023-02-25T07:50:15.108Z,96701.25
2023-02-25T07:52:43.018Z,96714.38
2023-02-25T07:55:13.155Z,96702.09
2023-02-25T07:57:41.192Z,96708.13
2023-02-25T08:00:11.593Z,96706.53
2023-02-25T08:02:40.050Z,96699.47
2023-02-25T08:05:08.739Z,96707.06
2023-02-25T08:07:36.649Z,96711.22
2023-02-25T08:10:05.403Z,96713.34
2023-02-25T08:12:35.292Z,96715.56
2023-02-25T08:15:03.387Z,96702.94
2023-02-25T08:17:32.596Z,96709.63
2023-02-25T08:20:00.485Z,96717.66
2023-02-25T08:22:28.421Z,96721.44
2023-02-25T08:24:56.299Z,96725.03
2023-02-25T08:27:24.196Z,96722.63
2023-02-25T08:29:53.517Z,96727.78
2023-02-25T08:32:22.900Z,96733.72
2023-02-25T08:34:52.169Z,96730.41
2023-02-25T08:37:21.540Z,96744.66
2023-02-25T08:39:49.704Z,96753.38
2023-02-25T08:42:19.021Z,96749.94
2023-02-25T08:44:46.920Z,96755.94
2023-02-25T08:47:16.398Z,96760.00
2023-02-25T08:49:44.342Z,96768.44
2023-02-25T08:52:14.009Z,96767.56
2023-02-25T08:54:42.435Z,96770.84
2023-02-25T08:57:10.382Z,96774.75
2023-02-25T08:59:38.981Z,96779.94
2023-02-25T09:02:07.432Z,96785.13
2023-02-25T09:04:36.865Z,96781.63
2023-02-25T09:07:04.819Z,96790.50
2023-02-25T09:09:34.142Z,96797.28
2023-02-25T09:12:05.074Z,96794.97
2023-02-25T09:14:33.587Z,96791.97
2023-02-25T09:17:02.293Z,96806.50
2023-02-25T09:19:30.339Z,96800.75
2023-02-25T09:21:59.694Z,96809.34
2023-02-25T09:24:30.040Z,96809.97
2023-02-25T09:26:58.067Z,96810.00
2023-02-25T09:29:26.080Z,96807.16
2023-02-25T09:31:55.147Z,96797.78
2023-02-25T09:34:23.295Z,96802.84
2023-02-25T09:36:51.311Z,96794.19
2023-02-25T09:39:20.978Z,96792.28
2023-02-25T09:41:53.367Z,96785.63
2023-02-25T09:44:23.832Z,96792.50
2023-02-25T09:46:53.435Z,96788.59
2023-02-25T09:49:27.083Z,96789.75
2023-02-25T09:51:59.150Z,96791.66
2023-02-25T09:54:31.119Z,96786.78
2023-02-25T09:57:00.419Z,96791.66
2023-02-25T09:59:28.970Z,96791.03
2023-02-25T10:01:58.231Z,96793.03
2023-02-25T10:04:32.160Z,96803.50
2023-02-25T10:07:04.571Z,96811.25
2023-02-25T10:09:39.427Z,96820.94
2023-02-25T10:12:13.909Z,96853.81
2023-02-25T10:14:55.954Z,96843.78
2023-02-25T10:17:27.347Z,96835.06
2023-02-25T10:20:09.414Z,96837.56
2023-02-25T10:22:43.519Z,96835.78
2023-02-25T10:25:14.912Z,96828.53
2023-02-25T10:27:44.887Z,96819.94
2023-02-25T10:30:15.773Z,96818.13
2023-02-25T10:32:44.165Z,96816.53
2023-02-25T10:35:20.592Z,96822.97
2023-02-25T10:37:48.860Z,96820.75
2023-02-25T10:40:19.878Z,96816.28
2023-02-25T10:42:49.260Z,96825.19
2023-02-25T10:45:21.494Z,96817.69
2023-02-25T10:47:52.408Z,96808.78
2023-02-25T10:50:38.954Z,96819.41
2023-02-25T10:53:14.675Z,96814.09
2023-02-25T10:55:52.092Z,96811.34
2023-02-25T10:58:34.637Z,96812.09
2023-02-25T11:01:05.634Z,96807.19
2023-02-25T11:03:35.429Z,96841.31
2023-02-25T11:06:11.026Z,96856.59
2023-02-25T11:08:39.100Z,96863.00
2023-02-25T11:11:20.768Z,96876.59
2023-02-25T11:14:02.037Z,96871.88
2023-02-25T11:16:30.641Z,96871.72
2023-02-25T11:18:59.749Z,96872.16
2023-02-25T11:21:33.003Z,96874.06
2023-02-25T11:24:02.814Z,96861.97
2023-02-25T11:26:34.123Z,96869.84
2023-02-25T11:29:03.534Z,96865.00
2023-02-25T11:31:37.827Z,96855.31
2023-02-25T11:34:09.533Z,96842.81
2023-02-25T11:36:39.012Z,96833.47
2023-02-25T11:39:15.192Z,96830.19
2023-02-25T11:41:44.815Z,96824.38
2023-02-25T11:44:20.817Z,96824.69
2023-02-25T11:46:51.895Z,96817.38
2023-02-25T11:49:21.838Z,96806.91
2023-02-25T11:51:52.074Z,96811.44
2023-02-25T11:54:26.019Z,96821.00
2023-02-25T11:56:57.349Z,96802.00
2023-02-25T11:59:31.913Z,96796.50
2023-02-25T12:02:16.867Z,96799.16
2023-02-25T12:04:53.349Z,96810.09
2023-02-25T12:08:12.465Z,96779.50
2023-02-25T12:11:14.190Z,96775.44
2023-02-25T12:14:23.987Z,96773.66
2023-02-25T12:17:27.238Z,96764.19
2023-02-25T12:20:30.415Z,96760.44
2023-02-25T12:23:30.618Z,96766.88
2023-02-25T12:26:01.656Z,96763.78
2023-02-25T12:28:51.616Z,96745.84
2023-02-25T12:31:36.833Z,96749.72
2023-02-25T12:34:29.568Z,96756.56
2023-02-25T12:37:07.151Z,96791.13
2023-02-25T12:39:59.180Z,96784.56
2023-02-25T12:42:38.781Z,96797.56
2023-02-25T12:45:22.395Z,96814.81
2023-02-25T12:48:13.341Z,96806.34
2023-02-25T12:50:48.436Z,96800.53
2023-02-25T12:53:23.490Z,96796.53
2023-02-25T12:56:03.752Z,96804.44
2023-02-25T12:58:41.127Z,96795.56
2023-02-25T13:01:33.819Z,96792.19
2023-02-25T13:04:14.501Z,96798.75
2023-02-25T13:07:04.056Z,96771.84
2023-02-25T13:09:48.254Z,96775.66
2023-02-25T13:12:27.907Z,96783.91
2023-02-25T13:15:00.424Z,96775.88
2023-02-25T13:18:04.219Z,96774.56
2023-02-25T13:20:44.362Z,96778.41
2023-02-25T13:23:39.863Z,96775.47
2023-02-25T13:26:24.713Z,96771.66
2023-02-25T13:29:14.317Z,96772.91
2023-02-25T13:31:46.722Z,96772.16
2023-02-25T13:34:21.364Z,96791.84
2023-02-25T13:37:12.162Z,96788.06
2023-02-25T13:39:55.195Z,96794.84
2023-02-25T13:42:37.330Z,96795.56
2023-02-25T13:45:37.323Z,96793.03
2023-02-25T13:48:24.031Z,96789.88
2023-02-25T13:50:56.825Z,96791.56
2023-02-25T13:53:37.751Z,96785.38
2023-02-25T13:56:12.186Z,96787.50
2023-02-25T13:58:50.685Z,96775.53
2023-02-25T14:01:37.009Z,96798.31
2023-02-25T14:04:25.751Z,96815.69
2023-02-25T14:07:12.279Z,96798.31
2023-02-25T14:09:44.212Z,96808.28
2023-02-25T14:12:17.501Z,96801.25
2023-02-25T14:15:09.872Z,96808.06
2023-02-25T14:18:13.314Z,96801.91
2023-02-25T14:20:46.931Z,96801.06
2023-02-25T14:23:17.305Z,96795.25
2023-02-25T14:25:56.406Z,96805.50
2023-02-25T14:28:28.468Z,96804.84
2023-02-25T14:31:03.269Z,96802.41
2023-02-25T14:33:48.157Z,96818.00
2023-02-25T14:36:28.115Z,96812.25
2023-02-25T14:39:14.487Z,96818.31
2023-02-25T14:41:52.480Z,96815.66
2023-02-25T14:44:25.685Z,96837.19
2023-02-25T14:46:55.797Z,96823.81
2023-02-25T14:49:26.788Z,96827.22
2023-02-25T14:52:19.855Z,96838.44
2023-02-25T14:55:15.213Z,96839.53
2023-02-25T14:58:09.317Z,96836.00
2023-02-25T15:01:12.264Z,96846.38
2023-02-25T15:04:15.938Z,96840.78
2023-02-25T15:06:51.733Z,96847.25
2023-02-25T15:09:35.701Z,96840.25
2023-02-25T15:12:17.883Z,96849.25
2023-02-25T15:15:34.618Z,96850.34
2023-02-25T15:18:28.988Z,96842.28
2023-02-25T15:20:57.489Z,96845.34
2023-02-25T15:23:42.585Z,96850.41
2023-02-25T15:26:22.324Z,96852.22
2023-02-25T15:28:50.865Z,96863.75
2023-02-25T15:31:39.096Z,96866.00
2023-02-25T15:34:39.085Z,96878.22
2023-02-25T15:37:28.236Z,96878.78
2023-02-25T15:39:56.839Z,96891.72
2023-02-25T15:42:47.987Z,96895.63
2023-02-25T15:45:39.526Z,96885.47
2023-02-25T15:48:34.561Z,96895.91
2023-02-25T15:51:06.332Z,96904.53
2023-02-25T15:53:48.143Z,96908.28
2023-02-25T15:56:47.498Z,96905.50
2023-02-25T15:59:42.919Z,96913.19
2023-02-25T16:02:39.879Z,96921.38
2023-02-25T16:05:25.684Z,96931.56
2023-02-25T16:08:06.546Z,96929.72
2023-02-25T16:10:41.926Z,96943.03
2023-02-25T16:13:14.525Z,96950.59
2023-02-25T16:15:45.252Z,96945.97
2023-02-25T16:18:16.900Z,96937.94
2023-02-25T16:20:47.410Z,96937.41
2023-02-25T16:23:16.856Z,96951.59
2023-02-25T16:25:49.736Z,96958.75
2023-02-25T16:28:20.738Z,96951.66
2023-02-25T16:30:51.239Z,96959.94
2023-02-25T16:33:22.042Z,96962.59
2023-02-25T16:35:55.346Z,96968.19
2023-02-25T16:38:32.123Z,96973.84
2023-02-25T16:41:00.566Z,96977.22
2023-02-25T16:43:29.671Z,96981.38
2023-02-25T16:45:58.316Z,96982.97
2023-02-25T16:48:29.862Z,96994.88
2023-02-25T16:50:57.742Z,97000.41
2023-02-25T16:53:26.785Z,96990.69
2023-02-25T16:56:00.179Z,96994.69
2023-02-25T16:58:29.153Z,97001.47
2023-02-25T17:00:58.417Z,96999.16
2023-02-25T17:03:27.264Z,97013.50
2023-02-25T17:06:06.321Z,97022.00
2023-02-25T17:08:34.401Z,97008.31
2023-02-25T17:11:04.999Z,97017.81
2023-02-25T17:13:33.504Z,97019.06
2023-02-25T17:16:04.004Z,97025.00
2023-02-25T17:18:32.828Z,97022.34
2023-02-25T17:21:03.216Z,97032.41
2023-02-25T17:23:31.335Z,97036.19
2023-02-25T17:25:59.272Z,97034.47
2023-02-25T17:28:30.266Z,97034.72
2023-02-25T17:31:06.695Z,97038.72
2023-02-25T17:33:34.765Z,97036.94
2023-02-25T17:36:06.223Z,97051.44
2023-02-25T17:38:34.299Z,97051.06
2023-02-25T17:41:02.328Z,97060.28
2023-02-25T17:43:36.461Z,97054.06
2023-02-25T17:46:05.356Z,97068.13
2023-02-25T17:48:43.462Z,97071.63
2023-02-25T17:51:15.414Z,97067.44
2023-02-25T17:53:45.323Z,97067.63
2023-02-25T17:56:22.599Z,97068.16
2023-02-25T17:58:52.287Z,97069.84
2023-02-25T18:01:23.532Z,97074.28
2023-02-25T18:03:52.902Z,97078.84
2023-02-25T18:06:33.333Z,97083.28
2023-02-25T18:09:02.912Z,97084.56
2023-02-25T18:11:32.851Z,97097.75
2023-02-25T18:14:03.612Z,97091.78
2023-02-25T18:16:43.222Z,97100.47
2023-02-25T18:19:33.073Z,97113.81
2023-02-25T18:22:01.080Z,97099.88
2023-02-25T18:24:33.317Z,97113.66
2023-02-25T18:27:24.633Z,97124.69
2023-02-25T18:29:54.451Z,97118.41
2023-02-25T18:32:22.455Z,97121.22
2023-02-25T18:34:50.935Z,97120.88
2023-02-25T18:37:20.579Z,97122.47
2023-02-25T18:39:48.745Z,97120.63
2023-02-25T18:42:17.944Z,97129.19
2023-02-25T18:44:46.608Z,97139.47
2023-02-25T18:47:16.866Z,97130.97
2023-02-25T18:49:46.229Z,97130.81
2023-02-25T18:52:19.387Z,97134.13
2023-02-25T18:54:48.050Z,97139.44
2023-02-25T18:57:21.821Z,97142.44
2023-02-25T18:59:50.402Z,97148.28
2023-02-25T19:02:25.594Z,97142.00
2023-02-25T19:04:55.697Z,97153.09
2023-02-25T19:07:25.656Z,97163.41
2023-02-25T19:09:54.243Z,97161.78
2023-02-25T19:12:26.157Z,97159.63
2023-02-25T19:14:57.030Z,97157.59
2023-02-25T19:17:26.549Z,97158.25
2023-02-25T19:19:54.435Z,97162.66
2023-02-25T19:22:23.316Z,97166.38
2023-02-25T19:24:51.745Z,97169.72
2023-02-25T19:27:22.099Z,97178.03
2023-02-25T19:29:50.413Z,97174.47
2023-02-25T19:32:18.568Z,97182.44
2023-02-25T19:34:48.004Z,97185.22
2023-02-25T19:37:17.238Z,97190.81
2023-02-25T19:39:45.648Z,97189.03
2023-02-25T19:42:13.915Z,97188.47
2023-02-25T19:44:41.977Z,97193.72
2023-02-25T19:47:10.054Z,97194.03
2023-02-25T19:49:38.061Z,97198.53
2023-02-25T19:52:07.487Z,97201.16
2023-02-25T19:54:35.729Z,97212.31
2023-02-25T19:57:04.603Z,97211.28
2023-02-25T19:59:32.597Z,97216.81
2023-02-25T20:02:01.038Z,97217.03
2023-02-25T20:04:29.169Z,97219.59
2023-02-25T20:06:57.065Z,97216.97
2023-02-25T20:09:26.930Z,97217.41
2023-02-25T20:11:55.412Z,97220.75
2023-02-25T20:14:24.039Z,97234.53
2023-02-25T20:16:52.325Z,97235.16
2023-02-25T20:19:20.365Z,97239.56
2023-02-25T20:21:48.555Z,97231.22
2023-02-25T20:24:16.535Z,97234.25
2023-02-25T20:26:46.633Z,97232.66
2023-02-25T20:29:14.660Z,97240.69
2023-02-25T20:31:43.015Z,97240.69
2023-02-25T20:34:12.810Z,97245.28
2023-02-25T20:36:42.456Z,97242.78
2023-02-25T20:39:33.603Z,97248.59
2023-02-25T20:42:04.496Z,97246.50
2023-02-25T20:44:32.761Z,97249.91
2023-02-25T20:47:01.472Z,97251.91
2023-02-25T20:49:29.693Z,97259.03
2023-02-25T20:51:58.354Z,97260.13
2023-02-25T20:54:26.339Z,97260.66
2023-02-25T20:56:54.277Z,97264.22
2023-02-25T20:59:23.678Z,97270.09
2023-02-25T21:01:51.967Z,97263.22
2023-02-25T21:04:20.005Z,97266.72
2023-02-25T21:06:48.349Z,97270.03
2023-02-25T21:09:16.309Z,97268.75
2023-02-25T21:11:44.303Z,97272.13
2023-02-25T21:14:12.294Z,97271.59
2023-02-25T21:16:41.607Z,97269.41
2023-02-25T21:19:09.597Z,97276.28
2023-02-25T21:21:38.075Z,97271.22
2023-02-25T21:24:06.366Z,97280.31
2023-02-25T21:26:34.475Z,97286.25
2023-02-25T21:29:02.638Z,97280.97
2023-02-25T21:31:30.636Z,97297.06
2023-02-25T21:34:01.835Z,97289.16
2023-02-25T21:36:29.971Z,97289.66
2023-02-25T21:38:57.916Z,97299.09
2023-02-25T21:41:25.811Z,97294.13
2023-02-25T21:43:53.761Z,97293.66
2023-02-25T21:46:21.767Z,97299.41
2023-02-25T21:48:53.213Z,97295.78
2023-02-25T21:51:24.807Z,97306.94
2023-02-25T21:53:55.208Z,97305.16
2023-02-25T21:56:23.622Z,97306.69
2023-02-25T21:58:54.394Z,97309.88
2023-02-25T22:01:23.423Z,97306.16
2023-02-25T22:03:51.460Z,97312.97
2023-02-25T22:06:19.473Z,97308.72
2023-02-25T22:08:48.810Z,97313.78
2023-02-25T22:11:18.423Z,97313.97
2023-02-25T22:13:46.361Z,97309.78
2023-02-25T22:16:15.040Z,97320.59
2023-02-25T22:18:43.218Z,97324.66
2023-02-25T22:21:13.160Z,97317.69
2023-02-25T22:23:41.392Z,97322.53
2023-02-25T22:26:15.465Z,97315.75
2023-02-25T22:28:46.471Z,97322.59
2023-02-25T22:31:16.054Z,97323.03
2023-02-25T22:33:44.273Z,97332.91
2023-02-25T22:36:12.516Z,97327.63
2023-02-25T22:38:44.075Z,97329.72
2023-02-25T22:41:14.781Z,97334.47
2023-02-25T22:43:42.904Z,97333.63
2023-02-25T22:46:11.880Z,97338.34
2023-02-25T22:48:40.741Z,97343.94
2023-02-25T22:51:09.319Z,97345.66
2023-02-25T22:53:37.455Z,97347.78
2023-02-25T22:56:07.091Z,97348.72
2023-02-25T22:58:38.943Z,97357.16
2023-02-25T23:01:08.294Z,97361.88
2023-02-25T23:03:36.270Z,97353.06
2023-02-25T23:06:04.792Z,97355.72
2023-02-25T23:08:32.956Z,97358.00
2023-02-25T23:11:09.046Z,97358.28
2023-02-25T23:13:46.612Z,97362.69
2023-02-25T23:16:15.408Z,97360.38
2023-02-25T23:18:43.351Z,97364.06
2023-02-25T23:21:16.388Z,97362.41
2023-02-25T23:23:45.203Z,97360.38
2023-02-25T23:26:13.856Z,97366.03
2023-02-25T23:28:43.208Z,97372.25
2023-02-25T23:31:20.123Z,97366.13
2023-02-25T23:33:48.305Z,97369.16
2023-02-25T23:36:16.420Z,97370.59
2023-02-25T23:38:44.349Z,97383.34
2023-02-25T23:41:12.717Z,97383.59
2023-02-25T23:43:41.994Z,97379.97
2023-02-25T23:46:10.076Z,97381.63
2023-02-25T23:48:38.429Z,97388.72
2023-02-25T23:51:07.084Z,97387.16
2023-02-25T23:53:35.396Z,97398.97
2023-02-25T23:56:07.122Z,97401.72
2023-02-25T23:58:35.084Z,97400.22
